Time;durP1;ratioP1;P1;durP2;ratioP2;P2;SDS_P1;SDS_P2;PMS_P1;PMS_P2;Temp;Humidity;BMP_temperature;BMP_pressure;BME280_temperature;BME280_humidity;BME280_pressure;Samples;Min_cycle;Max_cycle;Signal;HPM_P1;HPM_P2
2023/09/03 00:02:07;;;;;;;3.97;3.28;;;;;;;;;;5009918;28;20277;-77
2023/09/03 00:04:34;;;;;;;4.03;3.45;;;;;;;;;;5020463;28;20695;-76
2023/09/03 00:07:02;;;;;;;3.55;3.25;;;;;;;;;;5013690;28;20211;-76
2023/09/03 00:09:29;;;;;;;5.35;3.78;;;;;;;;;;5018615;28;20300;-76
2023/09/03 00:11:56;;;;;;;3.70;3.05;;;;;;;;;;5016097;28;20285;-76
2023/09/03 00:14:23;;;;;;;3.20;2.90;;;;;;;;;;5018039;28;20219;-76
2023/09/03 00:16:51;;;;;;;4.03;3.17;;;;;;;;;;5014196;28;20204;-75
2023/09/03 00:19:18;;;;;;;3.50;3.20;;;;;;;;;;5017690;28;20211;-75
2023/09/03 00:21:46;;;;;;;3.30;3.00;;;;;;;;;;5017065;28;20274;-76
2023/09/03 00:24:13;;;;;;;3.88;3.03;;;;;;;;;;5011329;28;20250;-75
2023/09/03 00:26:41;;;;;;;3.60;3.17;;;;;;;;;;5015412;28;20204;-76
2023/09/03 00:29:08;;;;;;;3.20;2.90;;;;;;;;;;5015348;28;20680;-75
2023/09/03 00:31:35;;;;;;;4.00;3.00;;;;;;;;;;5018442;28;20227;-77
2023/09/03 00:34:02;;;;;;;3.17;2.88;;;;;;;;;;5016825;28;20688;-75
2023/09/03 00:36:30;;;;;;;3.42;3.13;;;;;;;;;;5021348;28;20210;-77
2023/09/03 00:38:57;;;;;;;2.95;2.75;;;;;;;;;;5022562;28;20272;-76
2023/09/03 00:41:24;;;;;;;4.38;3.42;;;;;;;;;;5015547;28;20223;-75
2023/09/03 00:43:52;;;;;;;5.53;3.25;;;;;;;;;;5019308;28;20219;-75
2023/09/03 00:46:19;;;;;;;4.32;3.05;;;;;;;;;;5021646;28;20558;-75
2023/09/03 00:48:46;;;;;;;3.10;2.85;;;;;;;;;;5024054;28;20246;-75
2023/09/03 00:51:14;;;;;;;3.75;3.10;;;;;;;;;;5009528;28;20227;-75
2023/09/03 00:53:45;;;;;;;3.40;3.10;;;;;;;;;;5018610;28;20273;-74
2023/09/03 00:56:12;;;;;;;3.85;3.22;;;;;;;;;;5036943;28;20199;-75
2023/09/03 00:58:41;;;;;;;3.75;3.30;;;;;;;;;;5020117;28;20645;-76
2023/09/03 01:01:10;;;;;;;3.53;3.20;;;;;;;;;;5015275;28;20227;-77
2023/09/03 01:03:37;;;;;;;3.25;2.97;;;;;;;;;;5019879;28;20303;-75
2023/09/03 01:06:05;;;;;;;3.30;3.00;;;;;;;;;;5034407;28;20222;-76
2023/09/03 01:08:32;;;;;;;4.85;3.05;;;;;;;;;;5019258;28;20223;-77
2023/09/03 01:11:06;;;;;;;3.13;2.90;;;;;;;;;;5021829;28;20689;-77
2023/09/03 01:13:38;;;;;;;4.57;3.80;;;;;;;;;;5018632;28;20261;-75
2023/09/03 01:16:08;;;;;;;4.00;3.70;;;;;;;;;;5017282;28;20194;-77
2023/09/03 01:18:37;;;;;;;3.83;3.17;;;;;;;;;;5023174;28;20227;-76
2023/09/03 01:21:16;;;;;;;3.10;2.88;;;;;;;;;;5021737;28;20685;-75
2023/09/03 01:23:49;;;;;;;4.05;3.22;;;;;;;;;;5021937;28;20203;-77
2023/09/03 01:26:35;;;;;;;3.83;3.28;;;;;;;;;;5017585;28;20226;-76
2023/09/03 01:29:03;;;;;;;4.78;3.03;;;;;;;;;;5033464;28;20222;-74
2023/09/03 01:31:31;;;;;;;5.10;3.10;;;;;;;;;;5023850;28;20560;-76
2023/09/03 01:34:03;;;;;;;2.80;2.60;;;;;;;;;;5020071;28;20210;-77
2023/09/03 01:36:34;;;;;;;4.22;3.28;;;;;;;;;;5020810;28;20689;-74
2023/09/03 01:39:02;;;;;;;3.38;3.08;;;;;;;;;;5019986;28;20630;-75
2023/09/03 01:41:33;;;;;;;3.97;3.00;;;;;;;;;;5019467;28;20245;-75
2023/09/03 01:44:02;;;;;;;3.70;2.90;;;;;;;;;;5043223;28;20203;-76
2023/09/03 01:46:37;;;;;;;2.92;2.60;;;;;;;;;;5020875;28;20211;-76
2023/09/03 01:49:16;;;;;;;3.55;3.05;;;;;;;;;;5022074;28;20222;-76
2023/09/03 01:51:49;;;;;;;2.95;2.72;;;;;;;;;;5024830;28;20326;-77
2023/09/03 01:54:21;;;;;;;4.00;2.90;;;;;;;;;;5019195;28;20207;-75
2023/09/03 01:56:58;;;;;;;3.00;2.78;;;;;;;;;;5024014;28;20199;-77
2023/09/03 01:59:30;;;;;;;3.58;3.28;;;;;;;;;;5022781;28;20849;-75
2023/09/03 02:01:58;;;;;;;4.72;2.97;;;;;;;;;;5019799;28;20223;-76
2023/09/03 02:04:25;;;;;;;3.63;3.08;;;;;;;;;;5023026;28;20259;-75
2023/09/03 02:06:52;;;;;;;6.63;3.25;;;;;;;;;;5018546;28;20216;-76
2023/09/03 02:09:19;;;;;;;3.20;2.95;;;;;;;;;;5015634;28;20755;-76
2023/09/03 02:11:47;;;;;;;3.30;2.63;;;;;;;;;;5019550;28;20681;-76
2023/09/03 02:14:14;;;;;;;4.45;4.05;;;;;;;;;;5017082;28;20213;-76
2023/09/03 02:16:41;;;;;;;5.30;3.97;;;;;;;;;;5021185;28;20258;-75
2023/09/03 02:19:09;;;;;;;4.13;3.72;;;;;;;;;;5019806;28;20198;-76
2023/09/03 02:21:37;;;;;;;4.60;3.20;;;;;;;;;;5022215;28;20579;-75
2023/09/03 02:24:04;;;;;;;3.95;2.78;;;;;;;;;;5024119;28;20201;-76
2023/09/03 02:26:31;;;;;;;3.15;2.85;;;;;;;;;;5018975;28;20226;-75
2023/09/03 02:28:59;;;;;;;3.22;2.92;;;;;;;;;;5018556;28;20199;-76
2023/09/03 02:31:26;;;;;;;3.83;3.03;;;;;;;;;;5022349;28;20230;-77
2023/09/03 02:33:53;;;;;;;4.03;3.60;;;;;;;;;;5022643;28;20195;-76
2023/09/03 02:36:20;;;;;;;3.65;2.85;;;;;;;;;;5020393;28;20222;-76
2023/09/03 02:38:48;;;;;;;3.15;2.85;;;;;;;;;;5015894;28;20203;-76
2023/09/03 02:41:15;;;;;;;3.35;3.05;;;;;;;;;;5015737;28;20227;-76
2023/09/03 02:43:43;;;;;;;3.42;2.85;;;;;;;;;;5019932;28;20213;-77
2023/09/03 02:46:11;;;;;;;3.45;2.70;;;;;;;;;;5015424;28;20645;-75
2023/09/03 02:48:39;;;;;;;2.90;2.60;;;;;;;;;;5023526;28;20210;-75
2023/09/03 02:51:06;;;;;;;3.47;2.80;;;;;;;;;;5016107;28;20603;-76
2023/09/03 02:53:33;;;;;;;4.15;2.80;;;;;;;;;;5022573;28;20200;-76
2023/09/03 02:56:01;;;;;;;3.10;2.78;;;;;;;;;;5019593;28;20465;-77
2023/09/03 02:58:28;;;;;;;3.22;2.88;;;;;;;;;;5021332;28;20260;-76
2023/09/03 03:00:56;;;;;;;2.75;2.45;;;;;;;;;;5017256;28;20219;-76
2023/09/03 03:03:24;;;;;;;3.63;2.58;;;;;;;;;;5022260;28;20207;-75
2023/09/03 03:05:54;;;;;;;2.83;2.63;;;;;;;;;;5015874;28;20608;-75
2023/09/03 03:08:21;;;;;;;2.45;2.25;;;;;;;;;;5010850;28;20204;-75
2023/09/03 03:10:50;;;;;;;2.88;2.67;;;;;;;;;;5018942;28;20278;-77
2023/09/03 03:13:17;;;;;;;2.63;2.42;;;;;;;;;;5020929;28;20215;-76
2023/09/03 03:15:46;;;;;;;3.22;2.40;;;;;;;;;;5015948;28;20204;-77
2023/09/03 03:18:13;;;;;;;3.13;2.80;;;;;;;;;;5012658;28;20654;-74
2023/09/03 03:20:41;;;;;;;2.75;2.55;;;;;;;;;;5037607;28;20219;-76
2023/09/03 03:23:08;;;;;;;2.58;2.38;;;;;;;;;;5018810;28;20199;-77
2023/09/03 03:25:35;;;;;;;3.60;2.70;;;;;;;;;;5016266;28;20290;-75
2023/09/03 03:28:02;;;;;;;2.83;2.63;;;;;;;;;;5025692;28;20672;-75
2023/09/03 03:30:30;;;;;;;2.30;2.10;;;;;;;;;;5016580;28;22385;-76
2023/09/03 03:32:57;;;;;;;3.10;2.55;;;;;;;;;;5016795;28;20625;-76
2023/09/03 03:35:24;;;;;;;2.70;2.50;;;;;;;;;;5018133;28;20282;-75
2023/09/03 03:37:51;;;;;;;3.20;2.65;;;;;;;;;;5017530;28;20572;-76
2023/09/03 03:40:19;;;;;;;2.55;2.38;;;;;;;;;;5015136;28;20606;-77
2023/09/03 03:42:46;;;;;;;3.75;2.70;;;;;;;;;;5024620;28;20210;-74
2023/09/03 03:45:13;;;;;;;2.70;2.50;;;;;;;;;;5016633;28;20665;-76
2023/09/03 03:47:40;;;;;;;3.10;2.80;;;;;;;;;;5020730;28;20771;-75
2023/09/03 03:50:08;;;;;;;3.08;2.40;;;;;;;;;;5015650;28;20223;-75
2023/09/03 03:52:35;;;;;;;2.90;2.60;;;;;;;;;;5011992;28;20199;-76
2023/09/03 03:55:03;;;;;;;2.55;2.35;;;;;;;;;;5014871;28;20658;-75
2023/09/03 03:57:30;;;;;;;2.80;2.58;;;;;;;;;;5017268;28;20207;-75
2023/09/03 03:59:57;;;;;;;3.08;2.70;;;;;;;;;;5011965;28;20203;-75
2023/09/03 04:02:25;;;;;;;3.20;2.90;;;;;;;;;;5023056;28;20675;-76
2023/09/03 04:04:55;;;;;;;3.45;2.63;;;;;;;;;;5013072;28;20213;-76
2023/09/03 04:07:22;;;;;;;2.42;2.22;;;;;;;;;;5014257;28;20217;-75
2023/09/03 04:09:50;;;;;;;2.97;2.78;;;;;;;;;;5015101;28;20223;-74
2023/09/03 04:12:17;;;;;;;2.38;2.20;;;;;;;;;;5014407;28;20246;-75
2023/09/03 04:14:45;;;;;;;2.67;2.47;;;;;;;;;;5021674;28;20230;-76
2023/09/03 04:17:12;;;;;;;3.65;2.55;;;;;;;;;;5018560;28;20664;-75
2023/09/03 04:19:40;;;;;;;2.72;2.53;;;;;;;;;;5020897;28;20257;-76
2023/09/03 04:22:07;;;;;;;2.22;2.03;;;;;;;;;;5016809;28;20705;-75
2023/09/03 04:24:34;;;;;;;3.05;2.60;;;;;;;;;;5011469;28;20203;-75
2023/09/03 04:27:01;;;;;;;2.33;2.13;;;;;;;;;;5017099;28;20206;-76
2023/09/03 04:29:29;;;;;;;2.55;2.20;;;;;;;;;;5021952;28;20206;-75
2023/09/03 04:31:56;;;;;;;2.75;2.55;;;;;;;;;;5018791;28;20269;-76
2023/09/03 04:34:23;;;;;;;2.72;2.33;;;;;;;;;;5017680;28;20556;-75
2023/09/03 04:36:51;;;;;;;2.90;2.40;;;;;;;;;;5019947;28;20195;-76
2023/09/03 04:39:18;;;;;;;2.65;2.45;;;;;;;;;;5009740;28;20207;-75
2023/09/03 04:41:45;;;;;;;2.58;2.38;;;;;;;;;;5018549;28;20222;-76
2023/09/03 04:44:13;;;;;;;3.80;2.70;;;;;;;;;;5014547;28;20208;-75
2023/09/03 04:46:40;;;;;;;2.92;2.70;;;;;;;;;;5036300;28;20199;-76
2023/09/03 04:49:07;;;;;;;4.53;2.30;;;;;;;;;;5011333;28;20210;-75
2023/09/03 04:51:35;;;;;;;2.55;2.22;;;;;;;;;;5018654;28;20233;-75
2023/09/03 04:54:02;;;;;;;2.40;2.20;;;;;;;;;;5025857;28;20577;-75
2023/09/03 04:56:29;;;;;;;2.50;2.28;;;;;;;;;;5019704;28;20194;-75
2023/09/03 04:58:56;;;;;;;2.33;2.13;;;;;;;;;;5023439;28;20207;-75
2023/09/03 05:01:24;;;;;;;2.70;2.50;;;;;;;;;;5036451;28;20223;-75
2023/09/03 05:03:51;;;;;;;3.22;2.58;;;;;;;;;;5023970;28;20213;-76
2023/09/03 05:06:18;;;;;;;3.10;2.40;;;;;;;;;;5020158;28;20207;-75
2023/09/03 05:08:48;;;;;;;2.53;2.33;;;;;;;;;;5024551;28;20329;-76
2023/09/03 05:11:16;;;;;;;2.50;2.30;;;;;;;;;;5024685;28;20242;-75
2023/09/03 05:13:43;;;;;;;2.72;2.20;;;;;;;;;;5013119;28;20216;-76
2023/09/03 05:16:11;;;;;;;4.03;2.17;;;;;;;;;;5019233;28;20577;-75
2023/09/03 05:18:38;;;;;;;2.92;2.20;;;;;;;;;;5018295;28;20654;-75
2023/09/03 05:21:06;;;;;;;3.58;2.75;;;;;;;;;;5015887;28;20234;-75
2023/09/03 05:23:34;;;;;;;2.85;2.65;;;;;;;;;;5021019;28;20209;-75
2023/09/03 05:26:02;;;;;;;3.95;2.47;;;;;;;;;;5024208;28;20688;-75
2023/09/03 05:28:29;;;;;;;2.70;2.50;;;;;;;;;;5018057;28;20206;-77
2023/09/03 05:30:57;;;;;;;2.97;2.30;;;;;;;;;;5020499;28;20577;-77
2023/09/03 05:33:24;;;;;;;3.70;2.30;;;;;;;;;;5017641;28;20618;-75
2023/09/03 05:35:52;;;;;;;2.72;2.53;;;;;;;;;;5022782;28;20199;-76
2023/09/03 05:38:19;;;;;;;2.50;2.30;;;;;;;;;;5035898;28;20199;-76
2023/09/03 05:40:47;;;;;;;2.88;2.63;;;;;;;;;;5019716;28;20313;-76
2023/09/03 05:43:14;;;;;;;5.80;2.55;;;;;;;;;;5017628;28;20211;-77
2023/09/03 05:45:45;;;;;;;2.33;1.85;;;;;;;;;;5021947;28;20215;-75
2023/09/03 05:48:13;;;;;;;2.30;2.20;;;;;;;;;;5020021;28;20211;-74
2023/09/03 05:50:40;;;;;;;2.50;2.30;;;;;;;;;;5020564;28;20226;-77
2023/09/03 05:53:07;;;;;;;2.20;2.08;;;;;;;;;;5016146;28;20210;-75
2023/09/03 05:55:39;;;;;;;2.72;2.30;;;;;;;;;;5016924;28;20650;-75
2023/09/03 05:58:07;;;;;;;5.50;2.40;;;;;;;;;;5016230;28;20202;-75
2023/09/03 06:00:34;;;;;;;4.28;2.38;;;;;;;;;;5016035;28;20226;-74
2023/09/03 06:03:01;;;;;;;2.60;2.40;;;;;;;;;;5019428;28;20645;-75
2023/09/03 06:05:29;;;;;;;3.10;2.17;;;;;;;;;;5013855;28;20246;-74
2023/09/03 06:07:58;;;;;;;2.50;2.30;;;;;;;;;;5022096;28;20250;-75
2023/09/03 06:10:25;;;;;;;2.42;2.20;;;;;;;;;;5013584;28;20640;-74
2023/09/03 06:12:53;;;;;;;3.90;2.55;;;;;;;;;;5021960;28;20211;-76
2023/09/03 06:15:20;;;;;;;3.22;2.60;;;;;;;;;;5022261;28;20199;-75
2023/09/03 06:17:50;;;;;;;2.35;2.15;;;;;;;;;;5021578;28;20642;-76
2023/09/03 06:20:18;;;;;;;3.65;2.53;;;;;;;;;;5021471;28;20235;-76
2023/09/03 06:22:45;;;;;;;3.92;2.20;;;;;;;;;;5018614;28;20653;-75
2023/09/03 06:25:12;;;;;;;2.20;2.00;;;;;;;;;;5023884;28;20206;-76
2023/09/03 06:27:40;;;;;;;3.38;2.50;;;;;;;;;;5014116;28;20200;-77
2023/09/03 06:30:08;;;;;;;2.20;2.10;;;;;;;;;;5016375;28;20208;-76
2023/09/03 06:32:36;;;;;;;2.20;2.00;;;;;;;;;;5039943;28;20678;-76
2023/09/03 06:35:04;;;;;;;2.30;2.20;;;;;;;;;;5028023;28;20214;-76
2023/09/03 06:37:31;;;;;;;2.22;2.03;;;;;;;;;;5022732;28;20670;-75
2023/09/03 06:39:59;;;;;;;2.42;2.22;;;;;;;;;;5020582;28;20463;-76
2023/09/03 06:42:27;;;;;;;2.38;2.28;;;;;;;;;;5014630;28;20235;-75
2023/09/03 06:44:55;;;;;;;2.00;1.90;;;;;;;;;;5016656;28;20214;-75
2023/09/03 06:47:22;;;;;;;2.28;2.10;;;;;;;;;;5017019;28;20211;-76
2023/09/03 06:49:52;;;;;;;2.58;2.38;;;;;;;;;;5040411;28;20231;-75
2023/09/03 06:52:20;;;;;;;2.70;2.50;;;;;;;;;;5020411;28;20223;-76
2023/09/03 06:54:47;;;;;;;2.95;2.42;;;;;;;;;;5015380;28;20207;-76
2023/09/03 06:57:14;;;;;;;2.42;2.22;;;;;;;;;;5021680;28;20206;-75
2023/09/03 06:59:55;;;;;;;2.72;2.05;;;;;;;;;;5012441;28;20207;-76
2023/09/03 07:02:23;;;;;;;2.40;2.20;;;;;;;;;;5017103;28;20211;-76
2023/09/03 07:04:51;;;;;;;2.30;2.10;;;;;;;;;;5022377;28;20210;-76
2023/09/03 07:07:18;;;;;;;2.28;1.83;;;;;;;;;;5017452;28;20665;-76
2023/09/03 07:09:46;;;;;;;3.42;2.30;;;;;;;;;;5021376;28;20199;-75
2023/09/03 07:12:13;;;;;;;3.50;2.20;;;;;;;;;;5017311;28;20222;-74
2023/09/03 07:14:40;;;;;;;5.50;3.00;;;;;;;;;;5015201;28;20215;-76
2023/09/03 07:17:07;;;;;;;6.30;3.38;;;;;;;;;;5015712;28;20241;-77
2023/09/03 07:19:35;;;;;;;8.73;4.18;;;;;;;;;;5036234;28;20617;-76
2023/09/03 07:22:02;;;;;;;3.22;2.58;;;;;;;;;;5015653;28;20235;-75
2023/09/03 07:24:29;;;;;;;4.10;2.65;;;;;;;;;;5018410;28;20221;-75
2023/09/03 07:26:57;;;;;;;2.75;2.05;;;;;;;;;;5016682;28;20626;-75
2023/09/03 07:29:24;;;;;;;1.92;1.83;;;;;;;;;;5030169;28;20204;-75
2023/09/03 07:31:51;;;;;;;3.05;2.05;;;;;;;;;;5039217;28;20249;-76
2023/09/03 07:34:19;;;;;;;2.78;1.88;;;;;;;;;;5013923;28;20575;-76
2023/09/03 07:36:46;;;;;;;3.70;2.40;;;;;;;;;;5027118;28;20590;-77
2023/09/03 07:39:13;;;;;;;1.80;1.70;;;;;;;;;;5036135;28;20314;-76
2023/09/03 07:41:40;;;;;;;3.22;1.83;;;;;;;;;;5015539;28;20235;-75
2023/09/03 07:44:09;;;;;;;2.67;2.28;;;;;;;;;;5023711;28;20205;-74
2023/09/03 07:46:36;;;;;;;1.95;1.83;;;;;;;;;;5027171;28;20207;-74
2023/09/03 07:49:04;;;;;;;1.88;1.75;;;;;;;;;;5020435;28;20682;-75
2023/09/03 07:51:31;;;;;;;2.53;1.83;;;;;;;;;;5019936;28;20237;-75
2023/09/03 07:53:58;;;;;;;1.90;1.80;;;;;;;;;;5015680;28;20210;-75
2023/09/03 07:56:26;;;;;;;3.00;1.92;;;;;;;;;;5013460;28;20203;-76
2023/09/03 07:58:54;;;;;;;1.83;1.73;;;;;;;;;;5018626;28;20206;-74
2023/09/03 08:01:21;;;;;;;3.33;1.80;;;;;;;;;;5017979;28;20743;-75
2023/09/03 08:03:48;;;;;;;4.05;1.75;;;;;;;;;;5014012;28;20302;-76
2023/09/03 08:06:16;;;;;;;1.73;1.63;;;;;;;;;;5020014;28;20234;-74
2023/09/03 08:08:43;;;;;;;1.50;1.42;;;;;;;;;;5019105;28;20206;-75
2023/09/03 08:11:11;;;;;;;2.35;1.58;;;;;;;;;;5021076;28;20230;-75
2023/09/03 08:13:38;;;;;;;2.42;1.35;;;;;;;;;;5022007;28;20691;-74
2023/09/03 08:16:05;;;;;;;1.63;1.20;;;;;;;;;;5017769;28;20203;-76
2023/09/03 08:18:33;;;;;;;1.55;1.45;;;;;;;;;;5012767;28;20203;-76
2023/09/03 08:21:00;;;;;;;1.40;1.30;;;;;;;;;;5021031;28;20223;-76
2023/09/03 08:23:28;;;;;;;1.40;1.30;;;;;;;;;;5015493;28;20215;-76
2023/09/03 08:25:56;;;;;;;1.40;1.33;;;;;;;;;;5015535;28;20205;-77
2023/09/03 08:28:23;;;;;;;1.48;1.30;;;;;;;;;;5038098;28;20207;-76
2023/09/03 08:30:50;;;;;;;1.98;1.30;;;;;;;;;;5013018;28;20223;-74
2023/09/03 08:33:17;;;;;;;4.20;1.65;;;;;;;;;;5019629;28;20215;-74
2023/09/03 08:35:45;;;;;;;1.50;1.40;;;;;;;;;;5026039;28;20214;-75
2023/09/03 08:38:12;;;;;;;1.40;1.30;;;;;;;;;;5029401;28;20557;-77
2023/09/03 08:40:41;;;;;;;1.13;1.13;;;;;;;;;;5023783;28;20223;-75
2023/09/03 08:43:09;;;;;;;1.50;1.40;;;;;;;;;;5024406;28;20638;-75
2023/09/03 08:45:38;;;;;;;1.67;1.13;;;;;;;;;;5027156;28;20218;-76
2023/09/03 08:48:06;;;;;;;1.52;1.42;;;;;;;;;;5017643;28;20206;-75
2023/09/03 08:50:34;;;;;;;1.42;1.33;;;;;;;;;;5023750;28;20227;-76
2023/09/03 08:53:01;;;;;;;1.30;1.20;;;;;;;;;;5026387;28;20556;-76
2023/09/03 08:55:30;;;;;;;1.30;1.13;;;;;;;;;;5016800;28;20708;-76
2023/09/03 08:57:58;;;;;;;1.40;1.30;;;;;;;;;;5018564;28;20657;-75
2023/09/03 09:00:25;;;;;;;1.65;1.27;;;;;;;;;;5021111;28;20727;-75
2023/09/03 09:02:53;;;;;;;1.52;1.08;;;;;;;;;;5016615;28;20195;-76
2023/09/03 09:05:21;;;;;;;1.08;0.98;;;;;;;;;;5021555;28;20204;-75
2023/09/03 09:07:48;;;;;;;1.30;1.20;;;;;;;;;;5029960;28;20590;-75
2023/09/03 09:10:17;;;;;;;1.67;1.20;;;;;;;;;;5022981;28;20227;-77
2023/09/03 09:12:47;;;;;;;2.45;1.40;;;;;;;;;;5027225;28;20234;-76
2023/09/03 09:15:15;;;;;;;1.50;1.00;;;;;;;;;;5024484;28;20199;-77
2023/09/03 09:17:42;;;;;;;1.05;1.05;;;;;;;;;;5021424;28;20637;-76
2023/09/03 09:20:12;;;;;;;1.42;1.10;;;;;;;;;;5016612;28;20203;-75
2023/09/03 09:22:43;;;;;;;1.30;1.30;;;;;;;;;;5019594;28;20294;-76
2023/09/03 09:25:17;;;;;;;1.17;1.13;;;;;;;;;;5021850;28;20211;-75
2023/09/03 09:27:45;;;;;;;3.97;1.45;;;;;;;;;;5026735;28;20261;-75
2023/09/03 09:30:13;;;;;;;1.95;1.65;;;;;;;;;;5014723;28;20212;-75
2023/09/03 09:32:41;;;;;;;1.73;1.40;;;;;;;;;;5034561;28;20234;-75
2023/09/03 09:35:09;;;;;;;1.50;1.40;;;;;;;;;;5034601;28;20227;-76
2023/09/03 09:37:38;;;;;;;1.80;1.70;;;;;;;;;;5025003;28;20665;-75
2023/09/03 09:40:05;;;;;;;1.60;1.50;;;;;;;;;;5013415;28;20294;-75
2023/09/03 09:42:33;;;;;;;1.58;1.48;;;;;;;;;;5025451;28;20203;-75
2023/09/03 09:45:01;;;;;;;1.45;1.35;;;;;;;;;;5022024;28;20677;-77
2023/09/03 09:47:29;;;;;;;1.40;1.30;;;;;;;;;;5017386;28;20242;-76
2023/09/03 09:49:56;;;;;;;1.60;1.50;;;;;;;;;;5021465;28;20209;-76
2023/09/03 09:52:34;;;;;;;2.80;1.70;;;;;;;;;;5025742;28;20831;-75
2023/09/03 09:55:01;;;;;;;1.55;1.45;;;;;;;;;;5022573;28;20203;-75
2023/09/03 09:57:28;;;;;;;1.73;1.40;;;;;;;;;;5019071;28;20204;-75
2023/09/03 09:59:59;;;;;;;1.70;1.60;;;;;;;;;;5016063;28;20672;-75
2023/09/03 10:02:27;;;;;;;1.65;1.55;;;;;;;;;;5022974;28;20214;-75
2023/09/03 10:04:55;;;;;;;1.77;1.67;;;;;;;;;;5020080;28;20203;-76
2023/09/03 10:07:22;;;;;;;1.65;1.55;;;;;;;;;;5015418;28;20211;-76
2023/09/03 10:09:50;;;;;;;1.73;1.63;;;;;;;;;;5017259;28;20277;-75
2023/09/03 10:12:17;;;;;;;2.00;1.80;;;;;;;;;;5023947;28;20330;-77
2023/09/03 10:14:44;;;;;;;2.20;1.60;;;;;;;;;;5014442;28;20206;-76
2023/09/03 10:17:11;;;;;;;3.80;1.60;;;;;;;;;;5023416;28;20213;-75
2023/09/03 10:19:47;;;;;;;1.58;1.40;;;;;;;;;;5015309;28;20203;-75
2023/09/03 10:22:16;;;;;;;1.40;1.30;;;;;;;;;;5021841;28;20593;-76
2023/09/03 10:24:44;;;;;;;1.42;1.33;;;;;;;;;;5020244;28;20203;-76
2023/09/03 10:27:13;;;;;;;1.65;1.50;;;;;;;;;;5018039;28;20211;-77
2023/09/03 10:29:42;;;;;;;1.48;1.38;;;;;;;;;;5032433;28;20209;-73
2023/09/03 10:32:11;;;;;;;2.45;1.25;;;;;;;;;;5019029;28;20273;-75
2023/09/03 10:34:38;;;;;;;1.45;1.30;;;;;;;;;;5018631;28;20203;-75
2023/09/03 10:37:10;;;;;;;1.75;1.63;;;;;;;;;;5019944;28;20199;-75
2023/09/03 10:39:40;;;;;;;1.33;1.20;;;;;;;;;;5022722;28;20529;-76
2023/09/03 10:42:16;;;;;;;1.13;1.02;;;;;;;;;;5027497;28;20223;-75
2023/09/03 10:45:03;;;;;;;1.23;1.23;;;;;;;;;;5020553;28;20218;-76
2023/09/03 10:47:31;;;;;;;1.38;1.10;;;;;;;;;;5016709;28;20207;-75
2023/09/03 10:49:58;;;;;;;2.00;1.40;;;;;;;;;;5031944;28;20234;-75
2023/09/03 10:52:32;;;;;;;1.67;1.58;;;;;;;;;;5021256;28;20257;-76
2023/09/03 10:55:20;;;;;;;1.95;1.23;;;;;;;;;;5022139;28;20231;-76
2023/09/03 10:57:48;;;;;;;1.98;1.40;;;;;;;;;;5042001;28;20202;-75
2023/09/03 11:00:17;;;;;;;1.63;1.30;;;;;;;;;;5022701;28;20222;-74
2023/09/03 11:02:44;;;;;;;1.90;1.60;;;;;;;;;;5022959;28;20486;-76
2023/09/03 11:05:26;;;;;;;1.60;1.50;;;;;;;;;;5021197;28;20302;-78
2023/09/03 11:08:12;;;;;;;1.30;1.25;;;;;;;;;;5023195;28;20676;-75
2023/09/03 11:10:40;;;;;;;1.40;1.30;;;;;;;;;;5016474;28;20219;-76
2023/09/03 11:13:08;;;;;;;1.55;1.20;;;;;;;;;;5015856;28;20643;-75
2023/09/03 11:15:58;;;;;;;1.40;1.30;;;;;;;;;;5023237;28;20203;-74
2023/09/03 11:18:26;;;;;;;3.05;1.52;;;;;;;;;;5014696;28;20207;-75
2023/09/03 11:20:55;;;;;;;2.65;1.38;;;;;;;;;;5017785;28;20226;-75
2023/09/03 11:23:23;;;;;;;1.38;1.27;;;;;;;;;;5016439;28;20203;-77
2023/09/03 11:25:51;;;;;;;2.08;1.40;;;;;;;;;;5016953;28;20207;-75
2023/09/03 11:28:18;;;;;;;2.65;1.35;;;;;;;;;;5014672;28;20246;-75
2023/09/03 11:30:46;;;;;;;1.50;1.40;;;;;;;;;;5015716;28;20238;-76
2023/09/03 11:33:26;;;;;;;1.52;1.42;;;;;;;;;;5022874;28;20242;-76
2023/09/03 11:35:54;;;;;;;1.70;1.60;;;;;;;;;;5024576;28;20198;-76
2023/09/03 11:38:24;;;;;;;2.00;1.35;;;;;;;;;;5019867;28;20208;-77
2023/09/03 11:40:55;;;;;;;1.67;1.58;;;;;;;;;;5032849;28;20711;-75
2023/09/03 11:43:22;;;;;;;1.80;1.30;;;;;;;;;;5018693;28;20207;-76
2023/09/03 11:45:50;;;;;;;1.85;1.15;;;;;;;;;;5023387;28;20203;-75
2023/09/03 11:48:30;;;;;;;2.10;1.50;;;;;;;;;;5031810;28;20226;-74
2023/09/03 11:50:57;;;;;;;1.83;1.52;;;;;;;;;;5011060;28;20314;-74
2023/09/03 11:53:25;;;;;;;1.38;1.27;;;;;;;;;;5018629;28;20218;-76
2023/09/03 11:55:56;;;;;;;1.40;1.35;;;;;;;;;;5018581;28;20203;-76
2023/09/03 11:58:25;;;;;;;1.33;1.23;;;;;;;;;;5023878;28;20202;-75
2023/09/03 12:00:52;;;;;;;1.83;1.50;;;;;;;;;;5029082;28;20234;-76
2023/09/03 12:03:20;;;;;;;2.15;1.50;;;;;;;;;;5018207;28;20680;-76
2023/09/03 12:05:48;;;;;;;1.50;1.40;;;;;;;;;;5015117;28;20606;-75
2023/09/03 12:08:15;;;;;;;1.67;1.58;;;;;;;;;;5018002;28;21019;-77
2023/09/03 12:10:47;;;;;;;1.40;1.30;;;;;;;;;;5035419;28;20599;-77
2023/09/03 12:13:27;;;;;;;1.65;1.27;;;;;;;;;;5021300;28;20229;-76
2023/09/03 12:16:03;;;;;;;1.40;1.30;;;;;;;;;;5025020;28;20200;-76
2023/09/03 12:18:30;;;;;;;2.83;1.42;;;;;;;;;;5016000;28;20270;-75
2023/09/03 12:20:57;;;;;;;1.40;1.30;;;;;;;;;;5015422;28;20601;-76
2023/09/03 12:23:26;;;;;;;3.03;1.55;;;;;;;;;;5015992;28;20210;-74
2023/09/03 12:25:53;;;;;;;1.85;1.30;;;;;;;;;;5019590;28;20206;-74
2023/09/03 12:28:33;;;;;;;1.77;1.67;;;;;;;;;;5035879;28;20207;-74
2023/09/03 12:31:01;;;;;;;1.38;1.27;;;;;;;;;;5015923;28;20242;-74
2023/09/03 12:33:35;;;;;;;2.97;1.10;;;;;;;;;;5016412;28;20270;-75
2023/09/03 12:36:05;;;;;;;1.30;1.20;;;;;;;;;;5014884;28;20218;-75
2023/09/03 12:38:47;;;;;;;1.50;1.40;;;;;;;;;;5017643;28;20243;-75
2023/09/03 12:41:14;;;;;;;1.88;1.50;;;;;;;;;;5014512;28;20249;-76
2023/09/03 12:43:41;;;;;;;1.77;1.65;;;;;;;;;;5018302;28;20622;-74
2023/09/03 12:46:11;;;;;;;1.67;1.58;;;;;;;;;;5021403;28;20233;-74
2023/09/03 12:48:39;;;;;;;1.83;1.27;;;;;;;;;;5013970;28;20210;-74
2023/09/03 12:51:06;;;;;;;2.22;1.60;;;;;;;;;;5015725;28;20235;-73
2023/09/03 12:53:33;;;;;;;1.73;1.63;;;;;;;;;;5024004;28;20693;-74
2023/09/03 12:56:01;;;;;;;1.50;1.40;;;;;;;;;;5022082;28;20204;-73
2023/09/03 12:58:28;;;;;;;2.45;1.50;;;;;;;;;;5021995;28;20203;-74
2023/09/03 13:00:55;;;;;;;4.22;2.05;;;;;;;;;;5022797;28;20302;-73
2023/09/03 13:03:22;;;;;;;1.75;1.33;;;;;;;;;;5019161;28;20215;-76
2023/09/03 13:05:50;;;;;;;2.38;1.70;;;;;;;;;;5014581;28;20231;-74
2023/09/03 13:08:18;;;;;;;2.75;2.42;;;;;;;;;;5014280;28;20203;-74
2023/09/03 13:10:45;;;;;;;1.60;1.50;;;;;;;;;;5017987;28;20231;-74
2023/09/03 13:13:12;;;;;;;1.90;1.80;;;;;;;;;;5019657;28;20348;-73
2023/09/03 13:15:40;;;;;;;1.40;1.38;;;;;;;;;;5023404;28;20269;-72
2023/09/03 13:18:07;;;;;;;2.30;1.70;;;;;;;;;;5020856;28;20214;-74
2023/09/03 13:20:35;;;;;;;1.55;1.45;;;;;;;;;;5030680;28;20584;-73
2023/09/03 13:23:02;;;;;;;1.80;1.50;;;;;;;;;;5028713;28;20217;-75
2023/09/03 13:25:29;;;;;;;2.15;1.33;;;;;;;;;;5024374;28;20460;-75
2023/09/03 13:28:01;;;;;;;1.63;1.52;;;;;;;;;;5021467;28;20253;-73
2023/09/03 13:30:28;;;;;;;1.80;1.67;;;;;;;;;;5046680;28;20231;-73
2023/09/03 13:32:55;;;;;;;3.92;2.80;;;;;;;;;;5028752;28;20594;-74
2023/09/03 13:35:23;;;;;;;1.30;1.20;;;;;;;;;;5022835;28;20286;-73
2023/09/03 13:37:50;;;;;;;1.70;1.60;;;;;;;;;;5020959;28;20209;-73
2023/09/03 13:40:17;;;;;;;1.52;1.42;;;;;;;;;;5022405;28;20233;-74
2023/09/03 13:42:45;;;;;;;2.15;1.48;;;;;;;;;;5015255;28;20211;-74
2023/09/03 13:45:12;;;;;;;1.98;1.50;;;;;;;;;;5022641;28;20211;-74
2023/09/03 13:47:40;;;;;;;1.40;1.30;;;;;;;;;;5013840;28;20604;-75
2023/09/03 13:50:07;;;;;;;2.10;1.42;;;;;;;;;;5014826;28;20218;-75
2023/09/03 13:52:36;;;;;;;2.17;1.75;;;;;;;;;;5011859;28;20219;-75
2023/09/03 13:55:03;;;;;;;1.83;1.40;;;;;;;;;;5022165;28;20222;-75
2023/09/03 13:57:31;;;;;;;1.73;1.50;;;;;;;;;;5027423;28;20245;-74
2023/09/03 13:59:58;;;;;;;1.40;1.30;;;;;;;;;;5025479;28;20205;-74
2023/09/03 14:02:28;;;;;;;1.52;1.13;;;;;;;;;;5028582;28;20226;-75
2023/09/03 14:04:59;;;;;;;1.60;1.50;;;;;;;;;;5026219;28;20286;-75
2023/09/03 14:07:27;;;;;;;1.90;1.20;;;;;;;;;;5023101;28;20234;-74
2023/09/03 14:09:55;;;;;;;2.13;1.35;;;;;;;;;;5015615;28;20763;-73
2023/09/03 14:12:24;;;;;;;1.67;1.50;;;;;;;;;;5017880;28;20227;-74
2023/09/03 14:14:52;;;;;;;1.27;1.20;;;;;;;;;;5017674;28;20722;-75
2023/09/03 14:17:19;;;;;;;1.30;1.20;;;;;;;;;;5013579;28;20203;-74
2023/09/03 14:19:48;;;;;;;1.30;1.20;;;;;;;;;;5020137;28;20203;-75
2023/09/03 14:22:16;;;;;;;1.65;1.27;;;;;;;;;;5015487;28;20236;-75
2023/09/03 14:24:44;;;;;;;1.08;1.00;;;;;;;;;;5042631;28;20276;-74
2023/09/03 14:27:11;;;;;;;0.88;0.88;;;;;;;;;;5030814;28;20649;-75
2023/09/03 14:29:39;;;;;;;1.05;1.00;;;;;;;;;;5021339;28;20199;-74
2023/09/03 14:32:06;;;;;;;1.40;1.30;;;;;;;;;;5030491;28;20699;-73
2023/09/03 14:34:33;;;;;;;1.88;1.30;;;;;;;;;;5029587;28;20217;-74
2023/09/03 14:37:01;;;;;;;1.20;1.20;;;;;;;;;;5018594;28;20522;-74
2023/09/03 14:39:28;;;;;;;2.03;1.13;;;;;;;;;;5028374;28;20241;-73
2023/09/03 14:41:55;;;;;;;1.02;1.02;;;;;;;;;;5025893;28;20735;-74
2023/09/03 14:44:22;;;;;;;1.08;0.98;;;;;;;;;;5026885;28;20211;-74
2023/09/03 14:46:50;;;;;;;1.98;1.20;;;;;;;;;;5012608;28;20207;-74
2023/09/03 14:49:21;;;;;;;1.10;1.00;;;;;;;;;;5017761;28;20219;-75
2023/09/03 14:51:48;;;;;;;1.60;1.50;;;;;;;;;;5029820;28;20308;-75